Sibirskiy-2116 — UBXE3 — position and weather

sailwx.info

Track history (hours):
 
Tides and Currents Weather Stations Pressure Air Temp Water Temp Dewpoint Dewpoint Depression Visibility Wind Speed Wind Dir Waves Ship Positions

Sibirskiy-2116

Last reported at 2015-Jul-08 05:25 UTC. Time now 2015-Jul-30 08:15 UTC.
Position N 40°46' E 029°27'.
Warning: this ship's position is 22 days out of date.

Length 130 m; draft 2.9 m.

Type: Cargo ship. MMSI: 273347320.

Date/timePositionNaut miles runAvg speedWind from/ knotsBaromVisibWave heightAir tempDewpointWater temp
2015-Jul-08 05:25N 40°46' E 029°27'5 6.2
2015-Jul-08 04:33N 40°44' E 029°21'4 4.0
2015-Jul-08 03:33N 40°44' E 029°15'7 7.1
2015-Jul-08 02:32N 40°47' E 029°07'7 7.0
2015-Jul-08 01:32N 40°50' E 028°59'7 7.1
2015-Jul-08 00:33N 40°57' E 028°57'299 6.1
2015-Jul-05 23:17N 43°52' E 034°24'13 7.0
2015-Jul-05 21:25N 43°59' E 034°39'6 7.1
2015-Jul-05 20:34N 44°03' E 034°46'7 6.7
2015-Jul-05 19:34N 44°06' E 034°54'6 6.5
2015-Jul-05 18:34N 44°10' E 035°02'6 6.4
2015-Jul-05 17:34N 44°13' E 035°10'6 6.4
2015-Jul-05 16:33N 44°16' E 035°17'7 6.6
2015-Jul-05 15:29N 44°20' E 035°26'6 6.5
2015-Jul-05 14:34N 44°23' E 035°33'6 6.2
2015-Jul-05 13:34N 44°26' E 035°41'6 6.0
2015-Jul-05 12:34N 44°29' E 035°48'6 6.3
2015-Jul-05 11:33N 44°33' E 035°54'7 6.7
2015-Jul-05 10:34N 44°38' E 036°02'7 6.9
2015-Jul-05 09:33N 44°41' E 036°10'7 7.0
2015-Jul-05 08:33N 44°45' E 036°18'7 6.7
2015-Jul-05 07:33N 44°49' E 036°26'  
Track history (hours):
 
Tides and Currents Weather Stations Pressure Air Temp Water Temp Dewpoint Dewpoint Depression Visibility Wind Speed Wind Dir Waves Ship Positions

Sibirskiy-2116

Last reported at 2015-Jul-08 05:25 UTC. Time now 2015-Jul-30 08:15 UTC.
Position N 40°46' E 029°27'.
Warning: this ship's position is 22 days out of date.

Length 130 m; draft 2.9 m.

Type: Cargo ship. MMSI: 273347320.

Date/timePositionNaut miles runAvg speedWind from/ knotsBaromVisibWave heightAir tempDewpointWater temp
2015-Jul-08 05:25N 40°46' E 029°27'5 6.2
2015-Jul-08 04:33N 40°44' E 029°21'4 4.0
2015-Jul-08 03:33N 40°44' E 029°15'7 7.1
2015-Jul-08 02:32N 40°47' E 029°07'7 7.0
2015-Jul-08 01:32N 40°50' E 028°59'7 7.1
2015-Jul-08 00:33N 40°57' E 028°57'299 6.1
2015-Jul-05 23:17N 43°52' E 034°24'13 7.0
2015-Jul-05 21:25N 43°59' E 034°39'6 7.1
2015-Jul-05 20:34N 44°03' E 034°46'7 6.7
2015-Jul-05 19:34N 44°06' E 034°54'6 6.5
2015-Jul-05 18:34N 44°10' E 035°02'6 6.4
2015-Jul-05 17:34N 44°13' E 035°10'6 6.4
2015-Jul-05 16:33N 44°16' E 035°17'7 6.6
2015-Jul-05 15:29N 44°20' E 035°26'6 6.5
2015-Jul-05 14:34N 44°23' E 035°33'6 6.2
2015-Jul-05 13:34N 44°26' E 035°41'6 6.0
2015-Jul-05 12:34N 44°29' E 035°48'6 6.3
2015-Jul-05 11:33N 44°33' E 035°54'7 6.7
2015-Jul-05 10:34N 44°38' E 036°02'7 6.9
2015-Jul-05 09:33N 44°41' E 036°10'7 7.0
2015-Jul-05 08:33N 44°45' E 036°18'7 6.7
2015-Jul-05 07:33N 44°49' E 036°26'  

Dump ship's entire track history